createdAt,value
2022-12-23T00:00:50.959Z,11.34
2022-12-23T00:10:50.891Z,11.35
2022-12-23T00:20:50.841Z,11.36
2022-12-23T00:30:50.966Z,11.37
2022-12-23T00:41:09.269Z,11.38
2022-12-23T00:51:09.911Z,11.38
2022-12-23T01:01:28.359Z,11.39
2022-12-23T01:11:28.987Z,11.40
2022-12-23T01:21:28.995Z,11.40
2022-12-23T01:31:29.025Z,11.39
2022-12-23T01:41:47.463Z,11.39
2022-12-23T01:51:47.956Z,11.38
2022-12-23T02:02:06.555Z,11.38
2022-12-23T02:12:07.014Z,11.39
2022-12-23T02:22:07.063Z,11.40
2022-12-23T02:32:07.050Z,11.42
2022-12-23T02:42:07.107Z,11.45
2022-12-23T02:52:07.090Z,11.48
2022-12-23T03:02:07.284Z,11.51
2022-12-23T03:12:07.107Z,11.54
2022-12-23T03:22:07.110Z,11.56
2022-12-23T03:32:07.191Z,11.57
2022-12-23T03:42:07.077Z,11.58
2022-12-23T03:52:07.076Z,11.59
2022-12-23T04:02:07.356Z,11.59
2022-12-23T04:12:07.145Z,11.57
2022-12-23T04:22:07.159Z,11.55
2022-12-23T04:32:07.251Z,11.52
2022-12-23T04:42:07.276Z,11.51
2022-12-23T04:52:07.207Z,11.49
2022-12-23T05:02:07.619Z,11.47
2022-12-23T05:12:08.279Z,11.45
2022-12-23T05:22:08.261Z,11.44
2022-12-23T05:32:11.555Z,11.43
2022-12-23T05:42:12.270Z,11.42
2022-12-23T05:52:12.267Z,11.41
2022-12-23T06:02:12.540Z,11.41
2022-12-23T06:12:13.338Z,11.41
2022-12-23T06:22:13.593Z,11.42
2022-12-23T06:32:14.005Z,11.43
2022-12-23T06:42:14.339Z,11.44
2022-12-23T06:52:14.320Z,11.44
2022-12-23T07:02:17.670Z,11.45
2022-12-23T07:12:18.875Z,11.46
2022-12-23T07:22:19.856Z,11.46
2022-12-23T07:32:20.614Z,11.46
2022-12-23T07:52:22.438Z,11.49
2022-12-23T08:02:24.567Z,11.51
2022-12-23T08:12:24.557Z,11.56
2022-12-23T08:22:24.498Z,11.63
2022-12-23T08:32:24.543Z,11.70
2022-12-23T08:42:24.547Z,11.77
2022-12-23T08:52:24.496Z,11.80
2022-12-23T09:02:24.887Z,11.82
2022-12-23T09:12:25.595Z,11.91
2022-12-23T09:22:25.536Z,12.05
2022-12-23T09:32:25.662Z,12.19
2022-12-23T09:42:25.556Z,12.25
2022-12-23T09:52:25.665Z,12.28
2022-12-23T10:02:25.863Z,12.29
2022-12-23T10:12:31.650Z,12.30
2022-12-23T10:22:30.648Z,12.36
2022-12-23T10:32:30.728Z,12.44
2022-12-23T10:42:30.590Z,12.55
2022-12-23T10:52:30.647Z,12.65
2022-12-23T11:02:30.845Z,12.67
2022-12-23T11:12:30.640Z,12.65
2022-12-23T11:22:30.707Z,12.62
2022-12-23T11:32:30.696Z,12.57
2022-12-23T11:42:30.687Z,12.64
2022-12-23T11:52:30.831Z,12.81
2022-12-23T12:02:30.885Z,12.83
2022-12-23T12:12:30.745Z,12.68
2022-12-23T12:22:30.806Z,12.43
2022-12-23T12:32:30.860Z,12.19
2022-12-23T12:42:30.871Z,11.95
2022-12-23T12:52:30.847Z,11.76
2022-12-23T13:02:33.983Z,11.59
2022-12-23T13:12:33.940Z,11.42
2022-12-23T13:22:33.907Z,11.32
2022-12-23T13:32:34.040Z,11.18
2022-12-23T13:42:33.841Z,11.06
2022-12-23T13:52:33.907Z,11.00
2022-12-23T14:02:34.007Z,10.98
2022-12-23T14:12:33.943Z,10.95
2022-12-23T14:22:33.935Z,10.94
2022-12-23T14:32:34.045Z,10.99
2022-12-23T14:42:33.973Z,11.07
2022-12-23T14:52:35.875Z,11.18
2022-12-23T15:02:36.219Z,11.30
2022-12-23T15:12:37.129Z,11.43
2022-12-23T15:22:37.001Z,11.54
2022-12-23T15:32:37.015Z,11.64
2022-12-23T15:42:37.847Z,11.74
2022-12-23T15:52:38.083Z,11.83
2022-12-23T16:12:42.076Z,12.02
2022-12-23T16:22:42.404Z,12.12
2022-12-23T16:32:42.173Z,12.22
2022-12-23T16:42:42.084Z,12.35
2022-12-23T16:52:42.077Z,12.47
2022-12-23T17:02:44.494Z,12.64
2022-12-23T17:12:45.195Z,12.86
2022-12-23T17:22:45.260Z,13.04
2022-12-23T17:32:45.251Z,13.13
2022-12-23T17:42:45.271Z,13.15
2022-12-23T17:53:04.538Z,13.12
2022-12-23T18:03:04.293Z,13.08
2022-12-23T18:13:04.238Z,13.03
2022-12-23T18:23:04.769Z,12.97
2022-12-23T18:33:05.327Z,12.88
2022-12-23T18:43:05.253Z,12.82
2022-12-23T18:53:05.350Z,12.80
2022-12-23T19:03:05.398Z,12.82
2022-12-23T19:13:05.304Z,12.85
2022-12-23T19:23:05.399Z,12.87
2022-12-23T19:33:05.367Z,12.89
2022-12-23T19:43:05.372Z,12.88
2022-12-23T19:53:05.363Z,12.86
2022-12-23T20:03:05.557Z,12.86
2022-12-23T20:13:05.342Z,12.88
2022-12-23T20:23:05.390Z,12.90
2022-12-23T20:33:05.480Z,12.93
2022-12-23T20:43:08.138Z,12.93
2022-12-23T20:53:07.473Z,12.92
2022-12-23T21:03:10.641Z,12.92
2022-12-23T21:13:09.549Z,12.94
2022-12-23T21:23:09.546Z,12.95
2022-12-23T21:33:09.510Z,12.93
2022-12-23T21:43:09.532Z,12.91
2022-12-23T21:53:09.481Z,12.86
2022-12-23T22:03:12.583Z,12.80
2022-12-23T22:13:12.482Z,12.76
2022-12-23T22:23:12.520Z,12.73
2022-12-23T22:33:12.532Z,12.72
2022-12-23T22:43:12.553Z,12.72
2022-12-23T22:53:12.639Z,12.72
2022-12-23T23:03:12.559Z,12.72
2022-12-23T23:13:12.546Z,12.71
2022-12-23T23:23:12.569Z,12.69
2022-12-23T23:33:12.661Z,12.67
2022-12-23T23:43:12.644Z,12.64
2022-12-23T23:53:12.711Z,12.61
